createdAt,value
2023-03-03T00:05:22.547Z,20.8
2023-03-03T00:11:15.526Z,20.9
2023-03-03T00:17:08.913Z,20.8
2023-03-03T00:23:01.867Z,20.8
2023-03-03T00:39:53.300Z,20.8
2023-03-03T00:45:46.802Z,20.8
2023-03-03T00:51:39.927Z,20.8
2023-03-03T00:57:17.653Z,20.8
2023-03-03T01:02:56.147Z,20.8
2023-03-03T01:08:32.948Z,20.9
2023-03-03T01:14:10.999Z,20.8
2023-03-03T01:19:49.603Z,20.8
2023-03-03T01:25:10.805Z,20.8
2023-03-03T01:30:32.757Z,20.8
2023-03-03T01:36:10.941Z,20.8
2023-03-03T01:41:46.982Z,20.8
2023-03-03T01:47:08.628Z,20.9
2023-03-03T01:52:30.474Z,20.9
2023-03-03T01:57:51.236Z,20.9
2023-03-03T02:03:13.258Z,20.8
2023-03-03T02:08:35.172Z,20.8
2023-03-03T02:13:57.235Z,20.8
2023-03-03T02:19:18.336Z,20.8
2023-03-03T02:24:24.956Z,20.9
2023-03-03T02:29:29.905Z,20.8
2023-03-03T02:35:07.466Z,20.8
2023-03-03T02:40:45.060Z,20.9
2023-03-03T02:46:37.300Z,20.8
2023-03-03T02:52:14.529Z,20.8
2023-03-03T02:57:51.752Z,20.8
2023-03-03T03:03:28.782Z,20.8
2023-03-03T03:09:05.653Z,20.8
2023-03-03T03:14:27.999Z,20.8
2023-03-03T03:20:04.425Z,20.8
2023-03-03T03:25:42.055Z,20.8
2023-03-03T03:31:35.591Z,20.8
2023-03-03T03:37:11.982Z,20.8
2023-03-03T03:42:48.812Z,20.8
2023-03-03T03:48:41.910Z,20.9
2023-03-03T03:54:18.497Z,20.8
2023-03-03T03:59:56.069Z,20.8
2023-03-03T04:05:49.732Z,20.8
2023-03-03T04:11:41.847Z,20.8
2023-03-03T04:17:19.543Z,20.8
2023-03-03T04:23:16.270Z,20.8
2023-03-03T04:29:11.431Z,20.8
2023-03-03T04:34:58.572Z,20.8
2023-03-03T04:40:40.870Z,20.8
2023-03-03T04:46:34.338Z,20.8
2023-03-03T04:52:29.374Z,20.8
2023-03-03T05:03:59.714Z,20.8
2023-03-03T05:09:37.952Z,20.8
2023-03-03T05:15:31.536Z,20.8
2023-03-03T05:21:23.954Z,20.8
2023-03-03T05:27:17.154Z,20.8
2023-03-03T05:33:11.050Z,20.8
2023-03-03T05:38:48.762Z,20.8
2023-03-03T05:44:42.155Z,20.8
2023-03-03T05:50:35.673Z,20.8
2023-03-03T05:56:27.384Z,20.8
2023-03-03T06:02:20.985Z,20.8
2023-03-03T06:08:15.073Z,20.8
2023-03-03T06:13:52.516Z,20.8
2023-03-03T06:19:47.401Z,20.8
2023-03-03T06:25:41.597Z,20.8
2023-03-03T06:31:34.143Z,20.8
2023-03-03T06:37:12.252Z,20.8
2023-03-03T06:43:06.050Z,20.8
2023-03-03T06:48:58.823Z,20.8
2023-03-03T06:54:36.286Z,20.8
2023-03-03T07:00:31.032Z,20.8
2023-03-03T07:06:07.399Z,20.8
2023-03-03T07:12:03.042Z,20.8
2023-03-03T07:17:57.077Z,20.8
2023-03-03T07:23:50.351Z,20.8
2023-03-03T07:29:42.941Z,20.8
2023-03-03T07:35:21.801Z,20.8
2023-03-03T07:41:18.557Z,20.8
2023-03-03T07:47:10.927Z,20.8
2023-03-03T07:53:04.908Z,20.8
2023-03-03T07:58:57.204Z,20.8
2023-03-03T08:04:51.182Z,20
2023-03-03T08:10:29.829Z,20.1
2023-03-03T08:16:23.062Z,20.3
2023-03-03T08:22:15.471Z,20.4
2023-03-03T08:28:08.718Z,20.5
2023-03-03T08:34:26.353Z,20.6
2023-03-03T08:40:20.946Z,20.6
2023-03-03T08:46:15.215Z,20.6
2023-03-03T08:52:08.226Z,20.6
2023-03-03T08:58:01.685Z,20.6
2023-03-03T09:04:10.134Z,20.7
2023-03-03T09:10:02.819Z,20.7
2023-03-03T09:15:55.487Z,20.7
2023-03-03T09:21:49.849Z,20.7
2023-03-03T09:27:42.385Z,20.7
2023-03-03T09:33:36.036Z,20.7
2023-03-03T09:39:29.536Z,20.7
2023-03-03T09:45:21.514Z,20.7
2023-03-03T09:51:07.932Z,20.7
2023-03-03T09:57:04.325Z,20.7
2023-03-03T10:03:14.437Z,20.7
2023-03-03T10:09:11.265Z,20.7
2023-03-03T10:15:05.843Z,20.7
2023-03-03T10:21:10.809Z,20.8
2023-03-03T10:27:29.898Z,20.8
2023-03-03T10:33:42.544Z,20.8
2023-03-03T10:39:48.699Z,20.8
2023-03-03T10:45:59.042Z,20.8
2023-03-03T10:51:53.606Z,20.7
2023-03-03T10:57:58.989Z,20.7
2023-03-03T11:03:53.506Z,20.7
2023-03-03T11:09:51.623Z,20.7
2023-03-03T11:15:28.930Z,20.7
2023-03-03T11:21:23.057Z,20.7
2023-03-03T11:27:17.124Z,20.7
2023-03-03T11:33:11.381Z,20.8
2023-03-03T11:39:04.605Z,20.7
2023-03-03T11:44:58.409Z,20.7
2023-03-03T11:50:51.842Z,20.8
2023-03-03T11:56:46.513Z,20.8
2023-03-03T12:02:42.659Z,20.8
2023-03-03T12:08:41.934Z,20.8
2023-03-03T12:14:37.626Z,20.8
2023-03-03T12:20:15.837Z,20.8
2023-03-03T12:26:24.601Z,20.8
2023-03-03T12:32:19.033Z,20.8
2023-03-03T12:38:12.941Z,20.8
2023-03-03T12:44:19.173Z,20.8
2023-03-03T12:50:24.472Z,20.8
2023-03-03T12:56:18.194Z,20.7
2023-03-03T13:02:10.891Z,20.8
2023-03-03T13:08:09.277Z,20.7
2023-03-03T13:14:06.184Z,20.7
2023-03-03T13:20:22.022Z,20.7
2023-03-03T13:26:15.316Z,20.8
2023-03-03T13:32:09.306Z,20.7
2023-03-03T13:37:48.305Z,20.7
2023-03-03T13:43:41.002Z,20.7
2023-03-03T13:49:34.215Z,20.7
2023-03-03T13:55:26.431Z,20.8
2023-03-03T14:01:20.704Z,20.8
2023-03-03T14:07:14.749Z,20.8
2023-03-03T14:13:07.516Z,20.8
2023-03-03T14:19:01.837Z,20.8
2023-03-03T14:24:54.904Z,20.8
2023-03-03T14:30:48.125Z,20.8
2023-03-03T14:36:57.778Z,20.8
2023-03-03T14:42:51.509Z,20.7
2023-03-03T14:48:49.135Z,20.7
2023-03-03T14:54:42.787Z,20.7
2023-03-03T15:00:36.834Z,20.6
2023-03-03T15:06:17.238Z,20.6
2023-03-03T15:11:56.814Z,20.6
2023-03-03T15:17:34.714Z,20.6
2023-03-03T15:23:11.202Z,20.6
2023-03-03T15:29:03.419Z,20.6
2023-03-03T15:34:44.237Z,20.6
2023-03-03T15:40:20.002Z,20.6
2023-03-03T15:46:14.112Z,20.6
2023-03-03T15:51:37.160Z,20.6
2023-03-03T15:57:39.085Z,20.6
2023-03-03T16:03:16.865Z,20.6
2023-03-03T16:09:09.990Z,20.6
2023-03-03T16:15:03.534Z,20.6
2023-03-03T16:20:57.559Z,20.6
2023-03-03T16:26:51.892Z,20.6
2023-03-03T16:32:30.357Z,20.6
2023-03-03T16:38:25.068Z,20.6
2023-03-03T16:44:18.476Z,20.5
2023-03-03T16:50:09.593Z,20.5
2023-03-03T16:55:30.970Z,20.5
2023-03-03T17:01:25.110Z,20.5
2023-03-03T17:07:17.195Z,20.5
2023-03-03T17:13:07.618Z,20.5
2023-03-03T17:18:57.978Z,20.5
2023-03-03T17:24:50.965Z,20.5
2023-03-03T17:30:44.432Z,20.5
2023-03-03T17:42:19.108Z,20.4
2023-03-03T17:48:12.167Z,20.4
2023-03-03T17:54:05.123Z,20.4
2023-03-03T17:59:57.830Z,20.4
2023-03-03T18:05:53.761Z,20.4
2023-03-03T18:11:43.329Z,20.4
2023-03-03T18:17:34.823Z,20.4
2023-03-03T18:23:30.577Z,20.4
2023-03-03T18:29:24.836Z,20.4
2023-03-03T18:35:17.177Z,20.4
2023-03-03T18:41:09.689Z,20.4
2023-03-03T18:47:03.366Z,20.4
2023-03-03T18:52:55.381Z,20.4
2023-03-03T19:04:09.945Z,20.4
2023-03-03T19:10:03.321Z,20.4
2023-03-03T19:15:40.040Z,20.4
2023-03-03T19:21:20.335Z,20.3
2023-03-03T19:27:13.206Z,20.3
2023-03-03T19:33:06.293Z,20.3
2023-03-03T19:39:00.550Z,20.3
2023-03-03T19:44:56.833Z,20.3
2023-03-03T19:50:50.496Z,20.3
2023-03-03T19:56:42.417Z,20.3
2023-03-03T20:02:34.897Z,20.3
2023-03-03T20:08:28.802Z,20.3
2023-03-03T20:14:22.254Z,20.3
2023-03-03T20:20:15.281Z,20.3
2023-03-03T20:26:08.203Z,20.3
2023-03-03T20:32:01.857Z,20.3
2023-03-03T20:37:54.215Z,20.3
2023-03-03T20:43:31.787Z,20.3
2023-03-03T20:49:25.482Z,20.3
2023-03-03T20:55:17.856Z,20.4
2023-03-03T21:01:09.325Z,20.4
2023-03-03T21:12:23.932Z,20.3
2023-03-03T21:18:19.715Z,20.4
2023-03-03T21:23:58.903Z,20.4
2023-03-03T21:29:53.314Z,20.4
2023-03-03T21:35:48.386Z,20.4
2023-03-03T21:41:41.897Z,20.4
2023-03-03T21:47:35.251Z,20.4
2023-03-03T21:53:12.142Z,20.4
2023-03-03T21:58:50.421Z,20.4
2023-03-03T22:04:44.518Z,20.6
2023-03-03T22:10:38.402Z,20.6
2023-03-03T22:16:31.042Z,20.5
2023-03-03T22:22:23.430Z,20.6
2023-03-03T22:28:16.634Z,20.6
2023-03-03T22:34:10.646Z,20.6
2023-03-03T22:40:03.252Z,20.6
2023-03-03T22:45:56.151Z,20.6
2023-03-03T22:51:48.094Z,20.6
2023-03-03T22:57:40.255Z,20.6
2023-03-03T23:03:33.621Z,20.6
2023-03-03T23:09:11.365Z,20.6
2023-03-03T23:15:03.609Z,20.6
2023-03-03T23:26:33.645Z,20.6
2023-03-03T23:32:25.655Z,20.6
2023-03-03T23:38:01.962Z,20.6
2023-03-03T23:43:54.937Z,20.6
2023-03-03T23:49:47.542Z,20.6
2023-03-03T23:55:40.458Z,20.6
